CheckWX is a tool to help pilots better visualize weather data.  It is not intended as a substitute for an official pre-flight weather briefing.

01:39:09 UTC

EDHL METAR
Lübeck Blankensee Airport
Lübeck, Germany
Current

7 hours ago

EDHL 041850Z 19010KT 9999 BKN012 BKN020 17/17 Q1010
Observed
Jul-4 @ 18:50 UTC
Wind
  • 190° at 10 KTS
Visibility
10,000+ meters
Flight Rules
MVFR
Cloud Levels
  • Broken at 1,200' AGL
  • Broken at 2,000' AGL
Temperature
17°C / 63°F
Dewpoint
17°C / 63°F
Humidity
100%
Altimeter
29.82" Hg
Pressure
1009.92 hPa
Previous

7 hours ago

EDHL 041820Z 19009KT 9999 BKN007 BKN022 17/17 Q1010
Observed
Jul-4 @ 18:20 UTC
Wind
  • 190° at 9 KTS
Visibility
10,000+ meters
Flight Rules
IFR
Cloud Levels
  • Broken at 700' AGL
  • Broken at 2,200' AGL
Temperature
17°C / 63°F
Dewpoint
17°C / 63°F
Humidity
100%
Altimeter
29.82" Hg
Pressure
1009.92 hPa
Previous

8 hours ago

EDHL 041750Z 19010KT 9999 -RA BKN009 17/16 Q1010
Observed
Jul-4 @ 17:50 UTC
Wind
  • 190° at 10 KTS
Visibility
10,000+ meters
Flight Rules
IFR
Conditions
Light Rain
Cloud Levels
  • Broken at 900' AGL
Temperature
17°C / 63°F
Dewpoint
16°C / 61°F
Humidity
94%
Altimeter
29.82" Hg
Pressure
1009.92 hPa